Aérodrome :
LOGIN :

S'inscrire | Disclaimer

   EN    FR    IT 

 










Légende :    VFR   VFR Marginal   IFR   IFR Intensif   IFR Très Intensif
Visi : 
Plafond : 
>= 8 km
>= 3000ft
5 à 8 km
1000 à 3000 ft
1500m à 5 km
500 à 1000 ft
800 à 1500m
200 à 500 ft
< 800m
< 200 ft
Symboles :   Orages  Brouillard  Fortes neiges  Fortes précipitations  Vent > 20 kt
SIGMETs :   Divers  Orages  Givrage  Turbulence  Onde Orograph.  Cendres Volcan.






- Altitude de l'aérodrome : 3 ft
- Code IATA : LWR


EHLW - Leuuwarden Air Base

DERNIER METAR :
  • 080255Z AUTO 17013KT 120V210 9999 OVC006 04/03 Q0990 YLO

METARs EXPIRÉS :
  • 080245Z AUTO 17016KT 130V220 9999 BKN006 OVC008 04/03 Q0990 YLO
  • 080225Z AUTO 15015KT 120V200 9999 SCT007 BKN008 BKN010 04/03 Q0990 GRN
  • 080214Z AUTO 15014G24KT 110V180 9999 -DZ FEW007 SCT008 BKN009 04/03 Q0990 GRN
  • 080156Z AUTO 16014G24KT 110V170 9999 SCT007 SCT009 BKN010 04/03 Q0990 GRN
  • 080148Z AUTO 15015G27KT 110V180 9999 FEW007 SCT008 BKN010 04/03 Q0990 GRN
  • 080143Z AUTO 15016G27KT 110V180 9999 -DZ FEW007 SCT008 BKN010 04/03 Q0990 GRN
  • 080129Z AUTO 15017KT 110V190 6000 DZRA FEW007 SCT008 BKN009 FEW015CB 03/03 Q0990 GRN
  • 080125Z AUTO 15015G26KT 100V190 9999 -RA FEW007 SCT008 BKN011 FEW015CB 03/03 Q0990 GRN
  • 080113Z AUTO 15016KT 120V190 6000 -SHRA FEW007 SCT010 BKN012 FEW015CB 03/02 Q0991 GRN
  • 080055Z AUTO 14016G26KT 110V180 9000 -RA FEW008 BKN010 BKN013 03/02 Q0991 RERA REDZ GRN
  • 080037Z AUTO 14016KT 100V170 7000 DZRA FEW009 SCT010 BKN013 03/02 Q0990 GRN
  • 080025Z AUTO 14018G28KT 090V170 9000 -RA FEW009 SCT013 BKN015 03/02 Q0991 RERA REDZ GRN

TAF TAF EHLW
Valide du 08 à 02h jusqu'au 08 à 14h UTC


080119Z 0802/0814 15014KT 9999 SCT025 BKN035
TEMPO 0802/0804 4000 RA SCT008 BKN015
PROB30
TEMPO 0808/0814 FEW015 SCT018



MET'MAP, la Météo Aéronautique d'un coup d'oeil ! - Copyright ORBIFLY Décembre 2007 - Disclaimer

ORBIFLY MET'MAP TEAM :

Programmation & Développement : Alexandra Zaïnal
Sur une idée originale de : Baudouin d'Aumeries
Assistance à la programmation : Marc-Olivier Méhu
Soutien technique & logistique : Manuel Goepfert

Contact : metmap@orbifly.com




SOURCES & CREDITS :

   NOAA